createdAt,value
2023-05-07T00:01:27.183Z,13.05
2023-05-07T00:03:56.139Z,13.09
2023-05-07T00:06:25.133Z,13.07
2023-05-07T00:08:53.811Z,13.03
2023-05-07T00:11:22.681Z,13.07
2023-05-07T00:13:51.465Z,13.08
2023-05-07T00:16:21.777Z,13.07
2023-05-07T00:18:50.803Z,13.00
2023-05-07T00:21:19.537Z,12.97
2023-05-07T00:23:48.239Z,12.95
2023-05-07T00:26:16.936Z,12.94
2023-05-07T00:28:46.201Z,12.95
2023-05-07T00:31:14.902Z,12.88
2023-05-07T00:33:45.001Z,12.82
2023-05-07T00:36:13.712Z,12.81
2023-05-07T00:38:42.470Z,12.78
2023-05-07T00:41:11.330Z,12.73
2023-05-07T00:43:40.385Z,12.65
2023-05-07T00:46:09.215Z,12.50
2023-05-07T00:48:38.001Z,12.52
2023-05-07T00:51:08.312Z,12.56
2023-05-07T00:53:37.582Z,12.54
2023-05-07T00:56:08.275Z,12.47
2023-05-07T00:58:37.343Z,12.47
2023-05-07T01:01:06.228Z,12.47
2023-05-07T01:03:34.886Z,12.51
2023-05-07T01:06:06.973Z,12.47
2023-05-07T01:08:37.947Z,12.45
2023-05-07T01:11:07.071Z,12.49
2023-05-07T01:13:37.328Z,12.42
2023-05-07T01:16:08.232Z,12.43
2023-05-07T01:18:36.997Z,12.47
2023-05-07T01:21:07.840Z,12.48
2023-05-07T01:23:38.736Z,12.43
2023-05-07T01:26:07.535Z,12.43
2023-05-07T01:28:36.994Z,12.41
2023-05-07T01:31:07.421Z,12.43
2023-05-07T01:33:42.922Z,12.28
2023-05-07T01:36:13.702Z,12.23
2023-05-07T01:38:45.463Z,12.25
2023-05-07T01:41:14.774Z,12.26
2023-05-07T01:43:45.254Z,12.13
2023-05-07T01:46:15.293Z,12.06
2023-05-07T01:48:46.986Z,11.92
2023-05-07T01:51:15.722Z,11.96
2023-05-07T01:53:48.900Z,12.08
2023-05-07T01:56:17.857Z,12.06
2023-05-07T01:58:48.111Z,12.01
2023-05-07T02:01:17.264Z,11.99
2023-05-07T02:03:46.408Z,12.03
2023-05-07T02:06:22.735Z,11.99
2023-05-07T02:08:55.625Z,12.07
2023-05-07T02:11:24.646Z,12.10
2023-05-07T02:13:54.076Z,12.10
2023-05-07T02:16:23.405Z,12.13
2023-05-07T02:18:53.243Z,12.12
2023-05-07T02:21:23.226Z,12.08
2023-05-07T02:23:52.032Z,12.12
2023-05-07T02:26:22.586Z,12.07
2023-05-07T02:28:51.936Z,12.04
2023-05-07T02:31:20.780Z,12.06
2023-05-07T02:33:49.610Z,12.08
2023-05-07T02:36:19.243Z,12.11
2023-05-07T02:38:54.558Z,12.11
2023-05-07T02:41:24.693Z,12.02
2023-05-07T02:43:53.712Z,12.03
2023-05-07T02:46:22.602Z,12.03
2023-05-07T02:48:59.189Z,12.07
2023-05-07T02:51:29.113Z,12.09
2023-05-07T02:54:02.025Z,12.08
2023-05-07T02:56:33.318Z,12.10
2023-05-07T02:59:02.240Z,12.11
2023-05-07T03:01:35.813Z,12.04
2023-05-07T03:04:07.928Z,12.03
2023-05-07T03:06:36.848Z,11.98
2023-05-07T03:09:05.955Z,12.00
2023-05-07T03:11:36.637Z,12.01
2023-05-07T03:14:05.417Z,11.96
2023-05-07T03:16:34.337Z,11.99
2023-05-07T03:19:04.633Z,11.93
2023-05-07T03:21:34.865Z,11.97
2023-05-07T03:24:03.900Z,12.02
2023-05-07T03:26:32.985Z,12.00
2023-05-07T03:29:03.463Z,11.97
2023-05-07T03:31:32.214Z,12.04
2023-05-07T03:34:02.492Z,12.04
2023-05-07T03:36:31.837Z,12.04
2023-05-07T03:39:00.564Z,12.02
2023-05-07T03:41:37.758Z,12.00
2023-05-07T03:44:08.173Z,11.87
2023-05-07T03:46:37.277Z,11.96
2023-05-07T03:49:06.145Z,11.91
2023-05-07T03:51:35.043Z,11.97
2023-05-07T03:54:03.833Z,11.96
2023-05-07T03:56:34.157Z,12.00
2023-05-07T03:59:03.375Z,12.03
2023-05-07T04:01:33.626Z,11.98
2023-05-07T04:04:02.817Z,11.97
2023-05-07T04:06:32.787Z,11.91
2023-05-07T04:09:01.800Z,11.96
2023-05-07T04:11:31.396Z,11.96
2023-05-07T04:14:00.554Z,11.95
2023-05-07T04:16:29.461Z,11.93
2023-05-07T04:19:00.000Z,11.91
2023-05-07T04:21:29.553Z,11.89
2023-05-07T04:23:59.109Z,11.83
2023-05-07T04:26:27.868Z,11.87
2023-05-07T04:28:57.784Z,11.89
2023-05-07T04:31:27.710Z,11.92
2023-05-07T04:34:00.957Z,11.94
2023-05-07T04:36:30.683Z,11.88
2023-05-07T04:39:05.619Z,11.84
2023-05-07T04:41:34.996Z,11.92
2023-05-07T04:44:05.217Z,11.93
2023-05-07T04:46:36.363Z,11.81
2023-05-07T04:49:07.032Z,11.80
2023-05-07T04:51:36.893Z,11.84
2023-05-07T04:54:06.138Z,11.78
2023-05-07T04:56:35.147Z,11.61
2023-05-07T04:59:04.762Z,11.64
2023-05-07T05:01:33.967Z,11.66
2023-05-07T05:04:03.231Z,11.55
2023-05-07T05:06:34.183Z,11.55
2023-05-07T05:09:06.813Z,11.54
2023-05-07T05:11:36.504Z,11.53
2023-05-07T05:14:05.431Z,11.65
2023-05-07T05:16:34.851Z,11.60
2023-05-07T05:19:05.020Z,11.60
2023-05-07T05:21:37.490Z,11.62
2023-05-07T05:24:10.882Z,11.44
2023-05-07T05:26:41.822Z,11.47
2023-05-07T05:29:11.436Z,11.42
2023-05-07T05:31:43.784Z,11.53
2023-05-07T05:34:13.257Z,11.54
2023-05-07T05:36:44.060Z,11.63
2023-05-07T05:39:13.946Z,11.72
2023-05-07T05:41:42.831Z,11.80
2023-05-07T05:44:11.839Z,11.78
2023-05-07T05:46:41.414Z,11.74
2023-05-07T05:49:10.642Z,11.73
2023-05-07T05:51:40.516Z,11.75
2023-05-07T05:54:10.623Z,11.73
2023-05-07T05:56:40.163Z,11.81
2023-05-07T05:59:10.170Z,11.76
2023-05-07T06:01:40.033Z,11.67
2023-05-07T06:04:09.247Z,11.74
2023-05-07T06:06:38.001Z,11.81
2023-05-07T06:09:06.770Z,11.71
2023-05-07T06:11:45.645Z,11.84
2023-05-07T06:14:15.410Z,11.87
2023-05-07T06:16:44.149Z,11.76
2023-05-07T06:19:13.305Z,11.84
2023-05-07T06:21:43.120Z,11.84
2023-05-07T06:24:14.124Z,11.91
2023-05-07T06:26:44.445Z,11.90
2023-05-07T06:29:13.520Z,11.84
2023-05-07T06:31:44.447Z,11.75
2023-05-07T06:34:15.360Z,11.73
2023-05-07T06:36:44.430Z,11.73
2023-05-07T06:40:02.965Z,11.72
2023-05-07T06:42:35.009Z,11.71
2023-05-07T06:45:22.591Z,11.77
2023-05-07T06:47:52.245Z,11.87
2023-05-07T06:50:21.354Z,11.96
2023-05-07T06:52:51.813Z,11.92
2023-05-07T06:55:21.138Z,11.81
2023-05-07T06:57:52.479Z,11.63
2023-05-07T07:00:25.154Z,11.60
2023-05-07T07:02:57.662Z,11.64
2023-05-07T07:05:29.822Z,11.62
2023-05-07T07:08:00.076Z,11.67
2023-05-07T07:10:28.894Z,11.61
2023-05-07T07:12:59.985Z,11.53
2023-05-07T07:15:29.029Z,11.55
2023-05-07T07:17:58.841Z,11.57
2023-05-07T07:20:28.037Z,11.46
2023-05-07T07:22:58.738Z,11.48
2023-05-07T07:25:30.430Z,11.61
2023-05-07T07:28:00.692Z,11.66
2023-05-07T07:30:31.345Z,11.65
2023-05-07T07:33:03.490Z,11.66
2023-05-07T07:35:36.082Z,11.67
2023-05-07T07:38:07.127Z,11.67
2023-05-07T07:40:38.222Z,11.71
2023-05-07T07:43:10.475Z,11.73
2023-05-07T07:45:41.144Z,11.73
2023-05-07T07:48:11.455Z,11.74
2023-05-07T07:50:45.091Z,11.68
2023-05-07T07:53:18.273Z,11.67
2023-05-07T07:55:48.635Z,11.65
2023-05-07T07:58:23.144Z,11.53
2023-05-07T08:00:52.135Z,11.62
2023-05-07T08:03:21.074Z,11.61
2023-05-07T08:06:19.168Z,11.58
2023-05-07T08:08:48.013Z,11.53
2023-05-07T08:11:17.026Z,11.54
2023-05-07T08:13:48.716Z,11.69
2023-05-07T08:16:17.831Z,11.79
2023-05-07T08:18:46.936Z,11.71
2023-05-07T08:21:15.939Z,11.51
2023-05-07T08:23:45.033Z,11.54
2023-05-07T08:26:14.464Z,11.48
2023-05-07T08:29:03.542Z,11.55
2023-05-07T08:31:35.687Z,11.61
2023-05-07T08:34:09.525Z,11.66
2023-05-07T08:36:43.053Z,11.74
2023-05-07T08:39:13.805Z,11.82
2023-05-07T08:41:45.876Z,11.89
2023-05-07T08:44:19.188Z,11.97
2023-05-07T08:46:50.985Z,12.01
2023-05-07T08:49:20.256Z,12.05
2023-05-07T08:51:49.837Z,12.12
2023-05-07T08:54:19.213Z,12.17
2023-05-07T08:56:48.224Z,11.92
2023-05-07T08:59:19.405Z,11.98
2023-05-07T09:01:48.665Z,12.00
2023-05-07T09:04:19.246Z,11.88
2023-05-07T09:06:49.244Z,11.94
2023-05-07T09:09:20.282Z,11.96
2023-05-07T09:11:51.909Z,11.90
2023-05-07T09:14:24.523Z,11.93
2023-05-07T09:16:55.479Z,11.89
2023-05-07T09:19:26.458Z,11.90
2023-05-07T09:22:09.220Z,11.97
2023-05-07T09:24:51.297Z,12.06
2023-05-07T09:27:28.675Z,12.07
2023-05-07T09:30:01.288Z,12.11
2023-05-07T09:32:31.867Z,12.18
2023-05-07T09:35:03.697Z,12.08
2023-05-07T09:37:34.751Z,12.16
2023-05-07T09:40:04.581Z,12.21
2023-05-07T09:42:33.624Z,12.37
2023-05-07T09:45:10.104Z,12.34
2023-05-07T09:47:46.979Z,12.38
2023-05-07T09:50:23.867Z,12.39
2023-05-07T09:52:54.479Z,12.30
2023-05-07T09:55:24.085Z,12.31
2023-05-07T09:57:55.305Z,12.39
2023-05-07T10:00:29.963Z,12.46
2023-05-07T10:03:09.732Z,12.44
2023-05-07T10:05:48.674Z,12.40
2023-05-07T10:08:21.615Z,12.35
2023-05-07T10:10:53.973Z,12.29
2023-05-07T10:13:47.486Z,12.34
2023-05-07T10:16:21.338Z,12.35
2023-05-07T10:18:54.167Z,12.31
2023-05-07T10:21:53.217Z,12.28
2023-05-07T10:25:13.570Z,12.25
2023-05-07T10:27:48.813Z,12.21
2023-05-07T10:30:38.114Z,12.44
2023-05-07T10:33:14.096Z,12.70
2023-05-07T10:35:50.841Z,12.72
2023-05-07T10:38:22.187Z,12.92
2023-05-07T10:40:56.258Z,13.06
2023-05-07T10:43:54.702Z,13.13
2023-05-07T10:46:28.672Z,13.06
2023-05-07T10:49:17.747Z,12.90
2023-05-07T10:53:32.461Z,12.89
2023-05-07T10:56:52.503Z,12.87
2023-05-07T10:59:45.447Z,12.97
2023-05-07T11:02:23.935Z,13.08
2023-05-07T11:05:24.251Z,13.10
2023-05-07T11:08:07.404Z,12.97
2023-05-07T11:10:53.671Z,12.88
2023-05-07T11:13:48.521Z,12.94
2023-05-07T11:16:37.964Z,13.03
2023-05-07T11:19:19.083Z,12.98
2023-05-07T11:21:55.390Z,13.02
2023-05-07T11:24:42.824Z,13.08
2023-05-07T11:27:14.589Z,13.05
2023-05-07T11:29:49.724Z,12.96
2023-05-07T11:32:25.084Z,12.94
2023-05-07T11:34:56.079Z,12.96
2023-05-07T11:37:30.968Z,13.00
2023-05-07T11:40:12.266Z,13.05
2023-05-07T11:42:44.059Z,13.09
2023-05-07T11:45:13.759Z,13.13
2023-05-07T11:47:45.348Z,13.15
2023-05-07T11:50:14.784Z,13.14
2023-05-07T11:52:54.733Z,13.13
2023-05-07T11:55:27.269Z,13.25
2023-05-07T11:57:57.433Z,13.23
2023-05-07T12:00:26.390Z,13.25
2023-05-07T12:02:55.300Z,13.26
2023-05-07T12:05:24.637Z,13.43
2023-05-07T12:08:00.563Z,13.56
2023-05-07T12:10:29.890Z,13.64
2023-05-07T12:12:58.712Z,13.78
2023-05-07T12:15:28.460Z,13.86
2023-05-07T12:17:57.717Z,14.01
2023-05-07T12:20:26.812Z,14.07
2023-05-07T12:22:56.963Z,14.10
2023-05-07T12:25:27.537Z,14.16
2023-05-07T12:27:57.142Z,14.31
2023-05-07T12:30:26.767Z,14.16
2023-05-07T12:32:56.487Z,14.05
2023-05-07T12:35:31.799Z,14.03
2023-05-07T12:38:05.292Z,13.99
2023-05-07T12:40:43.624Z,13.99
2023-05-07T12:43:19.314Z,13.97
2023-05-07T12:45:51.581Z,14.02
2023-05-07T12:48:22.199Z,14.04
2023-05-07T12:50:52.630Z,13.99
2023-05-07T12:53:25.861Z,13.88
2023-05-07T12:56:01.780Z,13.90
2023-05-07T12:58:32.750Z,14.03
2023-05-07T13:01:20.608Z,14.28
2023-05-07T13:03:52.386Z,14.61
2023-05-07T13:06:21.290Z,14.79
2023-05-07T13:08:50.156Z,14.88
2023-05-07T13:11:20.353Z,14.87
2023-05-07T13:13:49.132Z,15.20
2023-05-07T13:16:17.855Z,15.44
2023-05-07T13:18:46.934Z,15.80
2023-05-07T13:21:15.767Z,16.14
2023-05-07T13:23:45.227Z,16.22
2023-05-07T13:26:25.711Z,15.98
2023-05-07T13:28:57.581Z,15.80
2023-05-07T13:31:27.546Z,15.59
2023-05-07T13:33:57.548Z,15.43
2023-05-07T13:36:30.085Z,15.25
2023-05-07T13:39:01.846Z,15.05
2023-05-07T13:41:32.502Z,14.88
2023-05-07T13:44:02.751Z,14.74
2023-05-07T13:46:32.177Z,14.66
2023-05-07T13:49:29.908Z,14.58
2023-05-07T13:52:23.598Z,14.53
2023-05-07T13:55:24.014Z,14.49
2023-05-07T13:57:59.409Z,14.56
2023-05-07T14:00:31.104Z,14.59
2023-05-07T14:02:59.975Z,14.59
2023-05-07T14:05:29.087Z,14.55
2023-05-07T14:08:00.937Z,14.48
2023-05-07T14:10:36.865Z,14.42
2023-05-07T14:13:28.915Z,14.27
2023-05-07T14:16:38.378Z,14.15
2023-05-07T14:19:08.311Z,14.14
2023-05-07T14:22:09.727Z,14.12
2023-05-07T14:24:42.842Z,14.13
2023-05-07T14:27:11.740Z,14.19
2023-05-07T14:29:40.879Z,14.35
2023-05-07T14:32:14.673Z,14.49
2023-05-07T14:34:43.606Z,14.54
2023-05-07T14:37:14.581Z,14.49
2023-05-07T14:40:04.664Z,14.46
2023-05-07T14:42:33.496Z,14.49
2023-05-07T14:45:05.203Z,14.58
2023-05-07T14:47:35.616Z,14.61
2023-05-07T14:50:05.023Z,14.58
2023-05-07T14:52:37.280Z,14.41
2023-05-07T14:55:07.104Z,14.38
2023-05-07T14:57:36.235Z,14.37
2023-05-07T15:00:08.001Z,14.28
2023-05-07T15:02:38.563Z,14.26
2023-05-07T15:05:08.872Z,14.21
2023-05-07T15:07:37.544Z,14.28
2023-05-07T15:10:07.513Z,14.32
2023-05-07T15:12:36.372Z,14.43
2023-05-07T15:15:06.266Z,14.35
2023-05-07T15:17:34.956Z,14.39
2023-05-07T15:20:12.192Z,14.43
2023-05-07T15:22:43.434Z,14.42
2023-05-07T15:25:13.111Z,14.48
2023-05-07T15:27:42.048Z,14.62
2023-05-07T15:30:12.262Z,14.67
2023-05-07T15:32:41.520Z,14.73
2023-05-07T15:35:12.414Z,14.71
2023-05-07T15:37:41.325Z,14.69
2023-05-07T15:40:36.384Z,14.58
2023-05-07T15:43:05.125Z,14.54
2023-05-07T15:45:34.009Z,14.51
2023-05-07T15:48:02.679Z,14.53
2023-05-07T15:50:33.044Z,14.36
2023-05-07T15:53:01.770Z,14.28
2023-05-07T15:55:31.374Z,14.28
2023-05-07T15:58:00.127Z,14.20
2023-05-07T16:00:29.619Z,13.99
2023-05-07T16:03:00.283Z,13.93
2023-05-07T16:05:33.099Z,13.95
2023-05-07T16:08:01.709Z,13.87
2023-05-07T16:10:30.788Z,13.82
2023-05-07T16:12:59.573Z,13.80
2023-05-07T16:15:28.268Z,13.76
2023-05-07T16:17:59.178Z,13.88
2023-05-07T16:20:31.163Z,13.87
2023-05-07T16:23:01.661Z,13.82
2023-05-07T16:25:30.461Z,13.82
2023-05-07T16:27:59.350Z,13.78
2023-05-07T16:30:28.439Z,13.81
2023-05-07T16:32:57.237Z,13.82
2023-05-07T16:35:26.035Z,13.80
2023-05-07T16:37:54.870Z,13.74
2023-05-07T16:40:25.688Z,13.73
2023-05-07T16:42:55.633Z,13.69
2023-05-07T16:45:24.482Z,13.62
2023-05-07T16:47:53.249Z,13.57
2023-05-07T16:50:22.079Z,13.47
2023-05-07T16:52:51.085Z,13.38
2023-05-07T16:55:20.104Z,13.31
2023-05-07T16:57:50.299Z,13.27
2023-05-07T17:00:19.854Z,13.27
2023-05-07T17:02:48.699Z,13.23
2023-05-07T17:05:17.650Z,13.18
2023-05-07T17:07:46.340Z,13.23
2023-05-07T17:10:15.281Z,13.23
2023-05-07T17:12:43.969Z,13.18
2023-05-07T17:15:14.709Z,13.12
2023-05-07T17:17:43.369Z,13.05
2023-05-07T17:20:14.773Z,13.09
2023-05-07T17:22:43.605Z,13.02
2023-05-07T17:25:14.868Z,13.00
2023-05-07T17:27:43.897Z,13.05
2023-05-07T17:30:18.163Z,13.01
2023-05-07T17:32:46.998Z,12.95
2023-05-07T17:35:15.684Z,12.91
2023-05-07T17:37:49.201Z,12.87
2023-05-07T17:40:18.262Z,12.79
2023-05-07T17:42:46.930Z,12.84
2023-05-07T17:45:17.845Z,12.78
2023-05-07T17:47:47.191Z,12.76
2023-05-07T17:50:18.524Z,12.74
2023-05-07T17:52:47.237Z,12.71
2023-05-07T17:55:16.072Z,12.69
2023-05-07T17:57:44.830Z,12.65
2023-05-07T18:00:16.788Z,12.59
2023-05-07T18:02:45.745Z,12.50
2023-05-07T18:05:15.848Z,12.47
2023-05-07T18:07:44.773Z,12.34
2023-05-07T18:10:13.871Z,12.43
2023-05-07T18:12:42.845Z,12.38
2023-05-07T18:15:12.026Z,12.24
2023-05-07T18:17:42.216Z,12.17
2023-05-07T18:20:13.020Z,12.14
2023-05-07T18:22:42.479Z,12.06
2023-05-07T18:25:11.647Z,11.97
2023-05-07T18:27:40.472Z,11.97
2023-05-07T18:30:10.973Z,11.93
2023-05-07T18:32:41.364Z,11.90
2023-05-07T18:35:11.038Z,11.89
2023-05-07T18:37:39.748Z,11.83
2023-05-07T18:40:10.402Z,11.77
2023-05-07T18:42:39.440Z,11.81
2023-05-07T18:45:09.524Z,11.92
2023-05-07T18:47:38.481Z,11.94
2023-05-07T18:50:10.328Z,11.90
2023-05-07T18:52:39.395Z,11.76
2023-05-07T18:55:10.793Z,11.74
2023-05-07T18:57:39.604Z,11.77
2023-05-07T19:00:11.026Z,11.66
2023-05-07T19:02:40.546Z,11.64
2023-05-07T19:05:11.136Z,11.61
2023-05-07T19:07:39.804Z,11.58
2023-05-07T19:10:10.909Z,11.50
2023-05-07T19:12:39.721Z,11.43
2023-05-07T19:15:10.179Z,11.35
2023-05-07T19:17:38.864Z,11.20
2023-05-07T19:20:11.501Z,11.14
2023-05-07T19:22:40.163Z,11.19
2023-05-07T19:25:10.007Z,11.12
2023-05-07T19:27:38.978Z,11.13
2023-05-07T19:30:09.993Z,11.12
2023-05-07T19:32:38.712Z,11.10
2023-05-07T19:35:10.067Z,11.10
2023-05-07T19:37:38.988Z,11.15
2023-05-07T19:40:09.685Z,11.09
2023-05-07T19:42:38.530Z,10.97
2023-05-07T19:45:08.754Z,10.91
2023-05-07T19:47:37.663Z,10.84
2023-05-07T19:50:07.869Z,10.86
2023-05-07T19:52:38.105Z,10.81
2023-05-07T19:55:08.714Z,10.84
2023-05-07T19:57:37.526Z,10.78
2023-05-07T20:00:08.357Z,10.77
2023-05-07T20:02:41.751Z,10.78
2023-05-07T20:05:13.886Z,10.75
2023-05-07T20:07:46.259Z,10.79
2023-05-07T20:10:15.161Z,10.81
2023-05-07T20:12:43.887Z,10.80
2023-05-07T20:15:13.327Z,10.82
2023-05-07T20:17:42.029Z,10.86
2023-05-07T20:20:12.640Z,10.79
2023-05-07T20:22:41.528Z,10.73
2023-05-07T20:25:13.611Z,10.71
2023-05-07T20:27:42.579Z,10.74
2023-05-07T20:30:12.966Z,10.51
2023-05-07T20:32:41.888Z,10.54
2023-05-07T20:35:11.705Z,10.47
2023-05-07T20:37:41.045Z,10.55
2023-05-07T20:40:12.574Z,10.55
2023-05-07T20:42:42.677Z,10.44
2023-05-07T20:45:13.137Z,10.36
2023-05-07T20:47:42.122Z,10.36
2023-05-07T20:50:12.050Z,10.32
2023-05-07T20:52:40.982Z,10.37
2023-05-07T20:55:11.977Z,10.43
2023-05-07T20:57:40.668Z,10.34
2023-05-07T21:00:11.381Z,10.39
2023-05-07T21:02:40.317Z,10.33
2023-05-07T21:05:09.801Z,10.35
2023-05-07T21:07:38.551Z,10.30
2023-05-07T21:10:08.698Z,10.36
2023-05-07T21:12:39.782Z,10.42
2023-05-07T21:15:10.770Z,10.47
2023-05-07T21:17:39.437Z,10.43
2023-05-07T21:20:10.159Z,10.44
2023-05-07T21:22:38.814Z,10.25
2023-05-07T21:25:08.124Z,10.22
2023-05-07T21:27:38.408Z,10.17
2023-05-07T21:30:08.886Z,10.27
2023-05-07T21:32:37.683Z,10.28
2023-05-07T21:35:08.054Z,10.26
2023-05-07T21:37:36.880Z,10.21
2023-05-07T21:40:06.748Z,10.22
2023-05-07T21:42:35.684Z,10.20
2023-05-07T21:45:08.850Z,10.15
2023-05-07T21:47:37.577Z,10.21
2023-05-07T21:50:07.661Z,10.11
2023-05-07T21:52:36.536Z,10.00
2023-05-07T21:55:05.895Z,10.01
2023-05-07T21:57:36.109Z,10.05
2023-05-07T22:00:05.890Z,10.09
2023-05-07T22:02:36.509Z,10.10
2023-05-07T22:05:05.681Z,10.14
2023-05-07T22:07:34.448Z,10.13
2023-05-07T22:10:03.221Z,10.01
2023-05-07T22:12:31.897Z,10.09
2023-05-07T22:15:01.127Z,10.06
2023-05-07T22:17:29.859Z,9.98
2023-05-07T22:19:59.937Z,10.11
2023-05-07T22:22:28.572Z,10.11
2023-05-07T22:24:57.238Z,10.10
2023-05-07T22:27:26.154Z,9.97
2023-05-07T22:29:54.833Z,9.99
2023-05-07T22:32:23.506Z,9.92
2023-05-07T22:34:52.185Z,9.88
2023-05-07T22:37:23.427Z,9.80
2023-05-07T22:39:53.109Z,9.87
2023-05-07T22:42:21.804Z,9.90
2023-05-07T22:44:53.931Z,9.81
2023-05-07T22:47:22.920Z,9.93
2023-05-07T22:49:51.823Z,9.91
2023-05-07T22:52:22.020Z,9.91
2023-05-07T22:54:50.689Z,9.90
2023-05-07T22:57:19.353Z,9.84
2023-05-07T22:59:48.127Z,9.81
2023-05-07T23:02:16.770Z,9.82
2023-05-07T23:04:46.182Z,9.78
2023-05-07T23:07:15.064Z,9.80
2023-05-07T23:09:45.205Z,9.68
2023-05-07T23:12:13.926Z,9.70
2023-05-07T23:14:42.644Z,9.79
2023-05-07T23:17:11.381Z,9.80
2023-05-07T23:19:40.151Z,9.82
2023-05-07T23:22:10.320Z,9.82
2023-05-07T23:24:39.295Z,9.64
2023-05-07T23:27:09.963Z,9.73
2023-05-07T23:29:38.726Z,9.66
2023-05-07T23:32:07.378Z,9.68
2023-05-07T23:34:36.113Z,9.65
2023-05-07T23:37:04.768Z,9.57
2023-05-07T23:39:33.524Z,9.55
2023-05-07T23:42:02.229Z,9.25
2023-05-07T23:44:32.294Z,9.16
2023-05-07T23:47:01.146Z,8.98
2023-05-07T23:49:29.925Z,9.12
2023-05-07T23:51:58.570Z,9.09
2023-05-07T23:54:27.227Z,8.85
2023-05-07T23:56:55.858Z,8.92
2023-05-07T23:59:24.538Z,8.91
